Weather observations for the past three days for
Lambertville, Toledo Suburban Airport
Imperial (Metric)
Date Time (edt) Wind (mph) Vis. (mi.) Weather Sky Cond. Temperature (ºF) Relative Humidity Wind Chill (°F) Heat Index (°F) Pressure Precipitation (in)
Air Dwpt 6 hour altimeter (in) sea level (mb) 1 hr 3 hr 6 hr
Max. Min.
06 23:15 Vrbl 1 10.00 Overcast OVC095 48.2 33.8 58% 29.93 0.0
06 22:55 Vrbl 1 10.00 Overcast OVC095 48.2 33.8 58% 29.93 0.0
06 22:35 SW 1 10.00 Overcast OVC085 50 32 50% 29.93 0.0
06 22:15 W 2 10.00 Mostly Cloudy BKN085 50 28.4 43% 29.93 0.0
06 21:55 Vrbl 1 10.00 Mostly Cloudy BKN085 50 28.4 43% 29.92 0.0
06 21:35 W 3 10.00 Mostly Cloudy BKN085 50 28.4 43% 29.92 0.0
06 21:15 Vrbl 3 10.00 A Few Clouds FEW085 51.8 30.2 44% 29.91 0.0
06 20:55 Vrbl 2 10.00 Mostly Cloudy BKN085 51.8 30.2 44% 29.91 0.0
06 20:35 Vrbl 2 10.00 Overcast OVC085 51.8 30.2 44% 29.9 0.0
06 20:15 Vrbl 5 10.00 Mostly Cloudy BKN085 53.6 28.4 38% 29.9 0.0
06 19:55 W 7 10.00 Overcast OVC085 53.6 28.4 56.8 53.4 38% 29.9 0.0
06 19:35 W 6 10.00 Mostly Cloudy BKN070 BKN085 53.6 28.4 38% 29.9 0.0
06 19:15 W 6 10.00 Partly Cloudy SCT070 55.4 28.4 36% 29.89 0.0
06 18:55 W 9 10.00 Mostly Cloudy BKN070 55.4 28.4 36% 29.89 0.0
06 18:35 NW 9 10.00 Overcast OVC070 55.4 26.6 33% 29.89 0.0
06 18:15 W 6 10.00 Overcast OVC070 55.4 30.2 38% 29.89 0.0
06 17:55 W 7 10.00 Overcast OVC070 55.4 28.4 36% 29.9 0.0
06 17:35 Vrbl 7 10.00 Mostly Cloudy BKN070 55.4 28.4 36% 29.89 0.0
06 17:15 W 9 10.00 Partly Cloudy SCT070 55.4 30.2 38% 29.89 0.0
06 16:55 W 9 10.00 Partly Cloudy SCT070 55.4 26.6 33% 29.89 0.0
06 16:35 W 7 10.00 Fair CLR 55.4 28.4 36% 29.89 0.0
06 16:15 NW 10 G 16 10.00 Fair CLR 57.2 28.4 33% 29.9 0.0
06 15:55 NW 7 10.00 A Few Clouds FEW110 55.4 28.4 36% 29.9 0.0
06 15:35 NW 9 10.00 Mostly Cloudy BKN110 53.6 26.6 35% 29.9 0.0
06 15:15 W 8 10.00 Mostly Cloudy BKN100 53.6 26.6 35% 29.91 0.0
06 14:55 Vrbl 6 G 16 10.00 A Few Clouds FEW110 53.6 24.8 33% 29.91 0.0
06 14:35 W 8 10.00 A Few Clouds FEW120 55.4 28.4 36% 29.9 0.0
06 14:15 NW 8 10.00 Fair CLR 53.6 28.4 38% 29.9 0.0
06 13:55 W 15 G 18 10.00 A Few Clouds FEW110 55.4 26.6 56.7 45.3 33% 29.89 0.0
06 13:35 NW 9 G 17 10.00 A Few Clouds FEW110 55.4 26.6 33% 29.9 0.0
06 13:15 NW 10 10.00 Fair CLR 55.4 26.6 33% 29.9 0.0
06 12:55 NW 12 10.00 Fair CLR 55.4 26.6 33% 29.91 0.0
06 12:35 NW 9 10.00 A Few Clouds FEW060 57.2 30.2 36% 29.9 0.0
06 12:15 Vrbl 5 G 18 10.00 Fair CLR 55.4 32 41% 29.9 0.0
06 11:55 W 12 10.00 Fair CLR 55.4 30.2 38% 29.9 0.0
06 11:35 NW 9 G 17 10.00 Fair CLR 55.4 30.2 38% 29.9 0.0
06 11:15 NW 9 10.00 Fair CLR 53.6 30.2 41% 29.89 0.0
06 10:55 Vrbl 5 10.00 Fair CLR 53.6 30.2 41% 29.89 0.0
06 10:35 NW 9 10.00 Fair CLR 51.8 30.2 44% 29.88 0.0
06 10:15 N 8 10.00 Fair CLR 51.8 30.2 44% 29.88 0.0
06 09:55 NW 9 10.00 Fair CLR 51.8 30.2 44% 29.88 0.0
06 09:35 NW 8 10.00 Fair CLR 51.8 32 47% 29.88 0.0
06 09:15 NW 8 10.00 Fair CLR 50 33.8 54% 47 29.86 0.0
06 08:55 NW 9 10.00 Fair CLR 48.2 33.8 58% 45 29.86 0.0
06 08:35 Vrbl 7 10.00 Fair CLR 48.2 35.6 62% 46 29.86 0.0
06 08:15 Vrbl 6 10.00 A Few Clouds FEW090 46.4 35.6 66% 44 29.85 0.0
06 07:55 N 2 10.00 Mostly Cloudy BKN090 46.4 35.6 46 44.8 66% 29.83 0.0
06 07:35 NW 3 10.00 Overcast OVC090 46.4 37.4 71% 29.83 0.0
06 07:15 Vrbl 3 10.00 Overcast BKN090 OVC120 46.4 37.4 71% 29.82 0.0
06 06:55 NW 3 10.00 Overcast SCT070 BKN090 OVC120 46.4 39.2 76% 29.81 0.0
06 06:35 W 3 10.00 Overcast OVC070 44.6 41 87% 29.81 0.0
06 06:15 Vrbl 3 10.00 Overcast OVC070 44.6 41 87% 29.8 0.0
06 05:55 W 5 10.00 Overcast OVC070 44.6 42.8 93% 43 29.8 0.0
06 05:35 W 3 10.00 Overcast OVC070 44.6 42.8 93% 29.79 0.0
06 05:15 Vrbl 1 10.00 Overcast OVC070 44.6 42.8 93% 29.79 0.0
06 04:55 W 5 10.00 Overcast OVC070 44.6 42.8 93% 43 29.8 0.0
06 04:35 Vrbl 2 10.00 Overcast OVC070 44.6 42.8 93% 29.79 0.0
06 04:15 SW 3 10.00 Overcast BKN070 OVC095 44.6 42.8 93% 29.8 0.0
06 03:55 Calm 10.00 Overcast SCT070 OVC095 44.6 42.8 93% 29.77 0.0
06 03:35 SW 3 10.00 Overcast BKN075 OVC095 44.6 42.8 93% 29.79 0.0
06 03:15 Vrbl 2 10.00 Overcast BKN075 OVC085 44.6 42.8 93% 29.79 0.0
06 02:55 Vrbl 2 10.00 Overcast BKN075 OVC085 44.6 42.8 93% 29.79 0.0
06 02:35 Vrbl 1 10.00 Light Drizzle BKN065 OVC090 44.6 42.8 93% 29.79 0.0
06 02:15 SW 3 10.00 Light Rain OVC060 44.6 42.8 93% 29.8 0.0
06 01:55 W 2 10.00 Light Drizzle OVC070 46.4 42.8 49.6 45.5 87% 29.8 0.0
06 01:35 SW 3 10.00 Overcast OVC060 46.4 42.8 87% 29.8 0.0
06 01:15 W 2 10.00 Light Drizzle OVC060 46.4 42.8 87% 29.8 0.0
06 00:55 W 3 10.00 Light Drizzle BKN060 OVC070 46.4 44.6 93% 29.8 0.0 0.01
06 00:35 Calm 10.00 Light Drizzle SCT060 BKN070 OVC080 46.4 44.6 93% 29.8 0.0
06 00:15 Calm 10.00 Light Drizzle BKN060 OVC070 46.4 44.6 93% 29.8 0.0
05 23:55 SW 2 10.00 Light Drizzle OVC070 46.4 44.6 93% 29.8 0.0
05 23:35 SE 2 10.00 Overcast OVC070 46.4 44.6 93% 29.79 0.0
05 23:15 S 1 10.00 Overcast OVC070 46.4 44.6 93% 29.8 0.0
05 22:55 SE 2 10.00 Light Rain BKN070 OVC080 46.4 44.6 93% 29.8 0.0 0.01
05 22:35 N 1 10.00 Light Rain OVC080 46.4 41 82% 29.8 0.0
05 22:15 NW 3 10.00 Light Rain OVC090 46.4 41 82% 29.8 0.0
05 21:55 NW 5 10.00 Light Rain BKN075 OVC090 48.2 46.4 94% 47 29.8 0.0 0.02
05 21:35 SW 5 10.00 Light Rain OVC080 48.2 46.4 94% 47 29.79 0.0
05 21:15 SW 3 10.00 Light Rain OVC090 48.2 46.4 94% 29.78 0.0
05 20:55 SW 3 10.00 Light Drizzle OVC090 48.2 46.4 94% 29.78 0.0 0.01
05 20:35 SW 3 10.00 Light Rain BKN080 OVC100 50 46.4 88% 29.77 0.0
05 20:15 Vrbl 3 10.00 Light Rain OVC080 50 46.4 88% 29.77 0.0
05 19:55 SW 5 10.00 Light Rain FEW070 OVC080 50 46.4 58.3 49.6 88% 49 29.77 0.0 0.03
05 19:35 SW 3 10.00 Light Rain SCT050 OVC070 50 48.2 94% 29.77 0.0
05 19:15 SW 5 8.00 Light Rain OVC050 50 48.2 94% 49 29.77 0.0
05 18:55 SW 5 10.00 Light Drizzle OVC044 50 48.2 94% 49 29.76 0.0
05 18:35 SW 3 10.00 Overcast OVC042 50 48.2 94% 29.76 0.0
05 18:15 SW 3 10.00 Overcast BKN040 BKN050 OVC070 50 48.2 94% 29.76 0.0
05 17:55 W 3 10.00 Light Rain SCT042 SCT050 OVC070 50 46.4 88% 29.76 0.0 0.04
05 17:35 SW 3 10.00 Light Rain BKN044 BKN060 OVC095 50 46.4 88% 29.76 0.0
05 17:15 SW 5 10.00 Light Rain OVC046 50 46.4 88% 49 29.77 0.0
05 16:55 W 5 10.00 Light Rain BKN046 BKN080 OVC090 51.8 46.4 82% 29.77 0.0 0.01
05 16:35 W 6 10.00 Light Rain BKN048 BKN080 OVC090 51.8 46.4 82% 29.76 0.0
05 16:15 Vrbl 5 10.00 Light Rain OVC050 51.8 44.6 77% 29.77 0.0
05 15:55 W 7 10.00 Light Drizzle OVC055 51.8 46.4 82% 29.78 0.0 0.01
05 15:35 Vrbl 5 10.00 Overcast OVC065 51.8 46.4 82% 29.78 0.0
05 15:15 W 5 10.00 Light Rain BKN065 OVC075 51.8 44.6 77% 29.79 0.0
05 14:55 N 8 10.00 Light Rain OVC080 51.8 46.4 82% 29.76 0.0
05 14:35 W 7 10.00 Light Rain BKN070 OVC080 55.4 42.8 63% 29.78 0.0
05 14:15 W 8 10.00 Light Rain OVC070 55.4 42.8 63% 29.77 0.0
05 13:55 W 8 10.00 Overcast OVC070 57.2 41 60.3 57.4 55% 29.76 0.0
05 13:35 W 8 10.00 Overcast OVC080 57.2 41 55% 29.74 0.0
05 13:15 W 8 10.00 Overcast OVC080 57.2 39.2 51% 29.75 0.0
05 12:55 W 9 10.00 Mostly Cloudy BKN090 59 39.2 48% 29.75 0.0
05 12:35 W 7 10.00 Overcast FEW044 FEW070 OVC090 59 41 51% 29.74 0.0
05 12:15 W 9 10.00 Light Rain FEW037 SCT065 OVC080 57.2 41 55% 29.76 0.0
05 11:55 W 12 10.00 Overcast OVC080 59 41 51% 29.76 0.0
05 11:35 W 16 G 20 10.00 Overcast OVC080 59 41 51% 29.75 0.0
05 11:15 W 7 10.00 Overcast OVC080 59 41 51% 29.74 0.0
05 10:55 W 8 G 21 10.00 Overcast FEW021 FEW028 OVC090 59 46.4 63% 29.74 0.0
05 10:35 W 10 G 16 10.00 Overcast BKN021 BKN028 OVC090 59 50 72% 29.72 0.0
05 10:15 W 9 G 20 10.00 Overcast BKN021 OVC028 59 51.8 77% 29.71 0.0
05 09:55 W 13 G 18 10.00 Partly Cloudy SCT019 60.8 51.8 72% 29.68 0.0
05 09:35 W 10 10.00 Mostly Cloudy BKN017 BKN022 59 51.8 77% 29.67 0.0
05 09:15 W 15 G 23 10.00 Overcast OVC017 59 53.6 82% 29.69 0.0
05 08:55 W 13 G 20 10.00 Mostly Cloudy SCT015 BKN022 59 53.6 82% 29.66 0.0
05 08:35 SW 12 10.00 Mostly Cloudy BKN022 BKN080 59 51.8 77% 29.66 0.0
05 08:15 SW 14 10.00 Partly Cloudy SCT020 SCT080 59 51.8 77% 29.67 0.0
05 07:55 SW 10 G 20 10.00 Fair CLR 57.2 51.8 62.2 56.7 82% 29.67 0.0
05 07:35 W 7 10.00 Fair CLR 57.2 51.8 82% 29.66 0.0
05 07:15 W 9 10.00 Fair CLR 57.2 51.8 82% 29.64 0.0
05 06:55 W 8 10.00 Fair CLR 57.2 51.8 82% 29.63 0.0
05 06:35 SW 6 10.00 Fair CLR 57.2 51.8 82% 29.62 0.0
05 06:15 SW 6 10.00 Fair CLR 57.2 51.8 82% 29.62 0.0
05 05:55 W 8 10.00 Fair CLR 57.2 51.8 82% 29.61 0.0
05 05:35 W 8 10.00 A Few Clouds FEW060 57.2 51.8 82% 29.61 0.0
05 05:15 W 7 10.00 Partly Cloudy SCT080 SCT090 57.2 53.6 88% 29.6 0.0
05 04:55 W 6 10.00 Overcast BKN080 OVC090 59 53.6 82% 29.59 0.0
05 04:35 W 10 10.00 Light Rain OVC090 59 53.6 82% 29.6 0.0
05 04:15 W 8 10.00 Light Rain OVC090 59 53.6 82% 29.6 0.0
05 03:55 W 10 10.00 Overcast OVC090 60.8 51.8 72% 29.59 0.0
05 03:35 SW 12 G 22 10.00 Overcast SCT080 OVC100 62.6 51.8 68% 29.57 0.0
05 03:15 SW 7 10.00 Mostly Cloudy BKN110 62.6 50 64% 29.56 0.0
05 02:55 SW 6 10.00 Partly Cloudy SCT070 SCT100 60.8 51.8 72% 29.56 0.0
05 02:35 Vrbl 5 10.00 Overcast OVC070 60.8 51.8 72% 29.58 0.0
05 02:15 SW 7 10.00 Mostly Cloudy BKN080 BKN110 60.8 51.8 72% 29.58 0.0
05 01:55 SW 8 10.00 Mostly Cloudy SCT065 BKN080 60.8 51.8 73.9 60.3 72% 29.59 0.0
05 01:35 W 8 10.00 Overcast BKN065 BKN080 OVC090 60.8 53.6 77% 29.6 0.0
05 01:15 W 8 10.00 Overcast SCT050 BKN080 OVC090 60.8 53.6 77% 29.61 0.0
05 00:55 Vrbl 7 10.00 Overcast SCT050 BKN065 OVC070 60.8 53.6 77% 29.61 0.0 0.02
05 00:35 Vrbl 5 10.00 Overcast FEW050 OVC075 62.6 53.6 73% 29.6 0.0
05 00:15 SW 10 G 24 10.00 Rain OVC070 68 51.8 56% 29.58 0.0
04 23:55 S 10 G 21 10.00 Overcast BKN080 OVC095 68 50 53% 29.57 0.0
04 23:35 S 12 G 21 10.00 Overcast BKN070 OVC090 68 50 53% 29.57 0.0
04 23:15 SW 10 G 17 10.00 Partly Cloudy FEW070 SCT090 68 50 53% 29.58 0.0
04 22:55 S 10 G 18 10.00 Partly Cloudy SCT070 SCT090 68 50 53% 29.58 0.0
04 22:35 SW 13 G 24 10.00 A Few Clouds FEW070 69.8 50 50% 29.59 0.0
04 22:15 SW 13 G 16 10.00 Fair CLR 69.8 50 50% 29.58 0.0
04 21:55 SW 10 G 18 10.00 Fair CLR 69.8 50 50% 29.57 0.0
04 21:35 SW 13 G 18 10.00 Fair CLR 69.8 50 50% 29.57 0.0
04 21:15 SW 17 G 24 10.00 Partly Cloudy FEW070 SCT120 71.6 48.2 44% 29.57 0.0
04 20:55 SW 10 G 24 10.00 Partly Cloudy FEW070 SCT100 SCT120 71.6 46.4 41% 29.57 0.0
04 20:35 SW 15 G 30 10.00 Mostly Cloudy SCT100 BKN120 73.4 46.4 38% 29.56 0.0
04 20:15 SW 20 G 32 10.00 Fair CLR 73.4 44.6 36% 29.55 0.0
04 19:55 SW 16 G 28 10.00 Fair CLR 73.4 48.2 77.2 73.2 41% 29.54 0.0
04 19:35 SW 20 G 32 10.00 Partly Cloudy SCT080 75.2 48.2 39% 77 29.54 0.0
04 19:15 SW 15 G 23 10.00 Mostly Cloudy BKN080 BKN110 75.2 48.2 39% 77 29.53 0.0
04 18:55 SW 13 G 22 10.00 Mostly Cloudy SCT070 SCT085 BKN110 75.2 48.2 39% 77 29.53 0.0
04 18:35 SW 14 G 25 10.00 Partly Cloudy FEW070 SCT110 75.2 48.2 39% 77 29.53 0.0
04 18:15 W 14 G 26 10.00 A Few Clouds FEW065 FEW075 FEW110 77 50 39% 78 29.53 0.0
04 17:55 SW 10 G 24 10.00 Partly Cloudy FEW070 SCT090 77 50 39% 78 29.54 0.0
04 17:35 W 18 G 29 10.00 Partly Cloudy FEW070 SCT090 SCT110 77 50 39% 78 29.54 0.0
04 17:15 SW 22 G 32 10.00 Mostly Cloudy and Breezy SCT060 SCT080 BKN110 77 50 39% 78 29.55 0.0
04 16:55 SW 14 G 26 10.00 Mostly Cloudy BKN060 BKN080 BKN100 75.2 50 41% 78 29.56 0.0
04 16:35 SW 15 G 29 10.00 Mostly Cloudy BKN060 BKN080 BKN090 75.2 50 41% 78 29.57 0.0
04 16:15 SW 15 G 25 10.00 Mostly Cloudy BKN070 BKN080 73.4 50 44% 29.58 0.0
04 15:55 SW 17 G 24 10.00 A Few Clouds FEW070 75.2 48.2 39% 77 29.58 0.0
04 15:35 SW 18 G 24 10.00 A Few Clouds FEW070 75.2 48.2 39% 77 29.59 0.0
04 15:15 S 17 G 25 10.00 Fair CLR 75.2 46.4 36% 77 29.6 0.0
04 14:55 SW 15 G 24 10.00 Fair CLR 75.2 44.6 34% 77 29.61 0.0
04 14:35 SW 17 G 22 10.00 Fair CLR 75.2 44.6 34% 77 29.62 0.0
04 14:15 SW 13 G 23 10.00 Fair CLR 73.4 41 31% 29.62 0.0
04 13:55 SW 10 G 25 10.00 Fair CLR 73.4 42.8 74.1 53.2 33% 29.63 0.0
04 13:35 SW 10 G 20 10.00 Fair CLR 73.4 42.8 33% 29.64 0.0
04 13:15 W 13 G 22 10.00 Fair CLR 73.4 42.8 33% 29.64 0.0
04 12:55 SW 12 G 23 10.00 Fair CLR 73.4 44.6 36% 29.65 0.0
04 12:35 W 16 G 20 10.00 Fair CLR 71.6 44.6 38% 29.66 0.0
04 12:15 SW 9 G 22 10.00 Fair CLR 69.8 44.6 40% 29.67 0.0
04 11:55 W 14 G 17 10.00 Fair CLR 69.8 46.4 43% 29.67 0.0
04 11:35 SW 10 10.00 Fair CLR 68 46.4 46% 29.68 0.0
04 11:15 W 10 G 16 10.00 Fair CLR 68 46.4 46% 29.68 0.0
04 10:55 SW 9 G 17 10.00 Fair CLR 66.2 46.4 49% 29.68 0.0
04 10:35 W 10 G 20 10.00 Fair CLR 64.4 44.6 49% 29.68 0.0
04 10:15 SW 9 G 17 10.00 Fair CLR 62.6 44.6 52% 29.69 0.0
04 09:55 W 9 10.00 Fair CLR 62.6 44.6 52% 29.69 0.0
04 09:35 SW 10 10.00 Fair CLR 60.8 44.6 55% 29.7 0.0
04 09:15 W 12 10.00 Fair CLR 59 42.8 55% 29.71 0.0
04 08:55 SW 12 10.00 Fair CLR 59 42.8 55% 29.71 0.0
04 08:35 SW 12 10.00 Fair CLR 57.2 42.8 59% 29.71 0.0
04 08:15 SW 9 10.00 Fair CLR 55.4 41 59% 29.72 0.0
04 07:55 SW 9 10.00 Fair CLR 53.6 41 53.2 49.5 63% 29.72 0.0
04 07:35 SW 9 G 16 10.00 Fair CLR 51.8 41 67% 29.72 0.0
04 07:15 S 7 10.00 Fair CLR 50 41 71% 48 29.71 0.0
04 06:55 S 7 10.00 Fair CLR 50 39.2 67% 48 29.71 0.0
04 06:35 SW 7 10.00 Fair CLR 50 39.2 67% 48 29.71 0.0
04 06:15 S 7 10.00 Fair CLR 50 39.2 67% 48 29.71 0.0
04 05:55 S 9 10.00 Fair CLR 50 39.2 67% 47 29.7 0.0
04 05:35 S 8 10.00 Fair CLR 51.8 39.2 62% 29.71 0.0
04 05:15 SW 9 10.00 Fair CLR 51.8 39.2 62% 29.71 0.0
04 04:55 SW 7 10.00 Fair CLR 51.8 39.2 62% 29.72 0.0
04 04:35 SW 8 10.00 Fair CLR 51.8 39.2 62% 29.72 0.0
04 04:15 SW 7 10.00 Fair CLR 51.8 39.2 62% 29.73 0.0
04 03:55 SW 9 G 17 10.00 Fair CLR 51.8 39.2 62% 29.73 0.0
04 03:35 S 10 10.00 Fair CLR 51.8 39.2 62% 29.73 0.0
04 03:15 S 10 G 16 10.00 Fair CLR 51.8 37.4 58% 29.74 0.0
04 02:55 SW 9 G 20 10.00 Fair CLR 51.8 37.4 58% 29.75 0.0
04 02:35 S 10 10.00 A Few Clouds FEW100 51.8 37.4 58% 29.76 0.0
04 02:15 S 10 G 18 10.00 Partly Cloudy FEW080 SCT100 51.8 37.4 58% 29.77 0.0
04 01:55 SW 13 G 17 10.00 Mostly Cloudy FEW080 BKN100 51.8 37.4 54 51.3 58% 29.77 0.0
04 01:35 S 10 10.00 Overcast BKN080 OVC100 51.8 37.4 58% 29.78 0.0
04 01:15 S 9 10.00 Overcast OVC090 51.8 37.4 58% 29.79 0.0
04 00:55 S 14 G 18 10.00 Overcast OVC090 51.8 37.4 58% 29.8 0.0
04 00:35 S 9 10.00 Overcast FEW080 OVC090 51.8 37.4 58% 29.8 0.0
04 00:15 S 12 G 17 10.00 Overcast OVC085 51.8 37.4 58% 29.81 0.0
03 23:55 S 14 10.00 Overcast BKN085 OVC095 51.8 37.4 58% 29.81 0.0
03 23:35 S 10 G 17 10.00 Overcast BKN085 OVC095 51.8 37.4 58% 29.82 0.0
Date Time (edt) Wind (mph) Vis. (mi.) Weather Sky Cond. Air Dwpt Max. Min. Relative Humidity Wind Chill (°F) Heat Index (°F) altimeter (in) sea level (mb) 1 hr 3 hr 6 hr
6 hour
Temperature (ºF) Pressure Precipitation (in)